sensor_id;sensor_type;location;lat;lon;timestamp;P1;durP1;ratioP1;P2;durP2;ratioP2
9848;SDS011;4963;51.444;6.528;2023-12-20T00:01:04;12.30;;;8.73;;
9848;SDS011;4963;51.444;6.528;2023-12-20T00:03:31;13.93;;;8.37;;
9848;SDS011;4963;51.444;6.528;2023-12-20T00:05:58;10.97;;;8.33;;
9848;SDS011;4963;51.444;6.528;2023-12-20T00:08:25;11.67;;;8.30;;
9848;SDS011;4963;51.444;6.528;2023-12-20T00:10:52;12.10;;;8.70;;
9848;SDS011;4963;51.444;6.528;2023-12-20T00:13:18;14.83;;;8.70;;
9848;SDS011;4963;51.444;6.528;2023-12-20T00:15:47;15.23;;;8.33;;
9848;SDS011;4963;51.444;6.528;2023-12-20T00:18:14;11.80;;;7.60;;
9848;SDS011;4963;51.444;6.528;2023-12-20T00:20:40;13.00;;;8.17;;
9848;SDS011;4963;51.444;6.528;2023-12-20T00:23:07;13.27;;;7.93;;
9848;SDS011;4963;51.444;6.528;2023-12-20T00:25:34;9.63;;;7.67;;
9848;SDS011;4963;51.444;6.528;2023-12-20T00:28:01;11.83;;;7.57;;
9848;SDS011;4963;51.444;6.528;2023-12-20T00:30:28;15.00;;;8.30;;
9848;SDS011;4963;51.444;6.528;2023-12-20T00:32:57;14.20;;;9.00;;
9848;SDS011;4963;51.444;6.528;2023-12-20T00:35:24;10.93;;;7.97;;
9848;SDS011;4963;51.444;6.528;2023-12-20T00:37:50;14.33;;;8.60;;
9848;SDS011;4963;51.444;6.528;2023-12-20T00:40:17;12.27;;;8.17;;
9848;SDS011;4963;51.444;6.528;2023-12-20T00:42:45;15.80;;;9.70;;
9848;SDS011;4963;51.444;6.528;2023-12-20T00:45:13;15.40;;;9.27;;
9848;SDS011;4963;51.444;6.528;2023-12-20T00:47:40;14.97;;;10.00;;
9848;SDS011;4963;51.444;6.528;2023-12-20T00:50:08;15.50;;;10.17;;
9848;SDS011;4963;51.444;6.528;2023-12-20T00:52:35;14.90;;;10.03;;
9848;SDS011;4963;51.444;6.528;2023-12-20T00:55:03;15.37;;;9.00;;
9848;SDS011;4963;51.444;6.528;2023-12-20T00:57:33;12.13;;;8.47;;
9848;SDS011;4963;51.444;6.528;2023-12-20T01:00:00;10.87;;;7.80;;
9848;SDS011;4963;51.444;6.528;2023-12-20T01:02:27;12.77;;;7.77;;
9848;SDS011;4963;51.444;6.528;2023-12-20T01:04:54;16.33;;;7.70;;
9848;SDS011;4963;51.444;6.528;2023-12-20T01:07:22;15.00;;;8.07;;
9848;SDS011;4963;51.444;6.528;2023-12-20T01:09:49;13.43;;;8.00;;
9848;SDS011;4963;51.444;6.528;2023-12-20T01:12:16;10.40;;;7.83;;
9848;SDS011;4963;51.444;6.528;2023-12-20T01:14:43;14.83;;;9.13;;
9848;SDS011;4963;51.444;6.528;2023-12-20T01:17:09;16.37;;;9.97;;
9848;SDS011;4963;51.444;6.528;2023-12-20T01:19:36;20.30;;;10.50;;
9848;SDS011;4963;51.444;6.528;2023-12-20T01:22:03;15.40;;;8.60;;
9848;SDS011;4963;51.444;6.528;2023-12-20T01:24:32;12.43;;;8.63;;
9848;SDS011;4963;51.444;6.528;2023-12-20T01:26:58;12.67;;;8.07;;
9848;SDS011;4963;51.444;6.528;2023-12-20T01:29:25;14.40;;;8.03;;
9848;SDS011;4963;51.444;6.528;2023-12-20T01:31:52;12.83;;;7.43;;
9848;SDS011;4963;51.444;6.528;2023-12-20T01:34:19;16.10;;;9.03;;
9848;SDS011;4963;51.444;6.528;2023-12-20T01:36:51;12.37;;;8.13;;
9848;SDS011;4963;51.444;6.528;2023-12-20T01:39:17;14.53;;;7.43;;
9848;SDS011;4963;51.444;6.528;2023-12-20T01:41:46;14.17;;;7.80;;
9848;SDS011;4963;51.444;6.528;2023-12-20T01:44:12;16.43;;;8.20;;
9848;SDS011;4963;51.444;6.528;2023-12-20T01:46:39;13.27;;;7.90;;
9848;SDS011;4963;51.444;6.528;2023-12-20T01:49:06;20.93;;;7.77;;
9848;SDS011;4963;51.444;6.528;2023-12-20T01:51:34;14.23;;;7.13;;
9848;SDS011;4963;51.444;6.528;2023-12-20T01:54:05;15.87;;;7.60;;
9848;SDS011;4963;51.444;6.528;2023-12-20T01:56:32;15.00;;;8.13;;
9848;SDS011;4963;51.444;6.528;2023-12-20T01:59:01;12.73;;;7.13;;
9848;SDS011;4963;51.444;6.528;2023-12-20T02:01:29;12.70;;;7.73;;
9848;SDS011;4963;51.444;6.528;2023-12-20T02:03:56;17.57;;;7.83;;
9848;SDS011;4963;51.444;6.528;2023-12-20T02:06:25;15.00;;;7.57;;
9848;SDS011;4963;51.444;6.528;2023-12-20T02:08:55;16.03;;;7.13;;
9848;SDS011;4963;51.444;6.528;2023-12-20T02:11:26;17.27;;;6.93;;
9848;SDS011;4963;51.444;6.528;2023-12-20T02:13:56;12.57;;;6.23;;
9848;SDS011;4963;51.444;6.528;2023-12-20T02:16:24;16.93;;;7.20;;
9848;SDS011;4963;51.444;6.528;2023-12-20T02:18:51;11.83;;;5.90;;
9848;SDS011;4963;51.444;6.528;2023-12-20T02:21:25;14.67;;;5.87;;
9848;SDS011;4963;51.444;6.528;2023-12-20T02:23:58;10.93;;;5.33;;
9848;SDS011;4963;51.444;6.528;2023-12-20T02:26:25;12.90;;;5.57;;
9848;SDS011;4963;51.444;6.528;2023-12-20T02:28:52;13.83;;;4.57;;
9848;SDS011;4963;51.444;6.528;2023-12-20T02:31:22;14.07;;;5.37;;
9848;SDS011;4963;51.444;6.528;2023-12-20T02:33:49;14.33;;;4.67;;
9848;SDS011;4963;51.444;6.528;2023-12-20T02:36:16;12.53;;;4.40;;
9848;SDS011;4963;51.444;6.528;2023-12-20T02:38:45;12.97;;;4.10;;
9848;SDS011;4963;51.444;6.528;2023-12-20T02:41:12;12.00;;;3.97;;
9848;SDS011;4963;51.444;6.528;2023-12-20T02:43:41;9.53;;;3.40;;
9848;SDS011;4963;51.444;6.528;2023-12-20T02:46:07;8.73;;;3.80;;
9848;SDS011;4963;51.444;6.528;2023-12-20T02:48:34;9.83;;;4.13;;
9848;SDS011;4963;51.444;6.528;2023-12-20T02:51:04;9.70;;;3.33;;
9848;SDS011;4963;51.444;6.528;2023-12-20T02:53:32;7.33;;;3.33;;
9848;SDS011;4963;51.444;6.528;2023-12-20T02:56:01;12.07;;;3.43;;
9848;SDS011;4963;51.444;6.528;2023-12-20T02:58:28;10.63;;;4.13;;
9848;SDS011;4963;51.444;6.528;2023-12-20T03:00:55;13.30;;;4.30;;
9848;SDS011;4963;51.444;6.528;2023-12-20T03:03:22;12.00;;;3.10;;
9848;SDS011;4963;51.444;6.528;2023-12-20T03:05:49;12.30;;;4.00;;
9848;SDS011;4963;51.444;6.528;2023-12-20T03:08:15;14.20;;;3.10;;
9848;SDS011;4963;51.444;6.528;2023-12-20T03:10:42;10.40;;;2.93;;
9848;SDS011;4963;51.444;6.528;2023-12-20T03:13:11;10.73;;;3.20;;
9848;SDS011;4963;51.444;6.528;2023-12-20T03:15:39;13.93;;;3.40;;
9848;SDS011;4963;51.444;6.528;2023-12-20T03:18:05;9.53;;;3.07;;
9848;SDS011;4963;51.444;6.528;2023-12-20T03:20:32;12.57;;;3.20;;
9848;SDS011;4963;51.444;6.528;2023-12-20T03:22:59;9.17;;;3.77;;
9848;SDS011;4963;51.444;6.528;2023-12-20T03:25:26;10.70;;;3.20;;
9848;SDS011;4963;51.444;6.528;2023-12-20T03:27:53;11.30;;;3.40;;
9848;SDS011;4963;51.444;6.528;2023-12-20T03:30:21;13.17;;;2.90;;
9848;SDS011;4963;51.444;6.528;2023-12-20T03:32:48;8.17;;;3.20;;
9848;SDS011;4963;51.444;6.528;2023-12-20T03:35:15;11.33;;;3.10;;
9848;SDS011;4963;51.444;6.528;2023-12-20T03:37:42;7.93;;;2.87;;
9848;SDS011;4963;51.444;6.528;2023-12-20T03:40:09;22.13;;;4.07;;
9848;SDS011;4963;51.444;6.528;2023-12-20T03:42:36;11.23;;;3.13;;
9848;SDS011;4963;51.444;6.528;2023-12-20T03:45:03;10.20;;;2.70;;
9848;SDS011;4963;51.444;6.528;2023-12-20T03:47:32;9.37;;;3.10;;
9848;SDS011;4963;51.444;6.528;2023-12-20T03:49:59;11.83;;;3.37;;
9848;SDS011;4963;51.444;6.528;2023-12-20T03:52:27;12.93;;;3.53;;
9848;SDS011;4963;51.444;6.528;2023-12-20T03:54:54;15.10;;;3.57;;
9848;SDS011;4963;51.444;6.528;2023-12-20T03:57:21;11.83;;;3.33;;
9848;SDS011;4963;51.444;6.528;2023-12-20T03:59:47;10.80;;;3.13;;
9848;SDS011;4963;51.444;6.528;2023-12-20T04:02:14;11.00;;;3.80;;
9848;SDS011;4963;51.444;6.528;2023-12-20T04:04:44;12.50;;;2.93;;
9848;SDS011;4963;51.444;6.528;2023-12-20T04:07:11;11.03;;;3.00;;
9848;SDS011;4963;51.444;6.528;2023-12-20T04:09:38;11.60;;;3.53;;
9848;SDS011;4963;51.444;6.528;2023-12-20T04:12:06;16.27;;;3.50;;
9848;SDS011;4963;51.444;6.528;2023-12-20T04:14:33;14.20;;;4.17;;
9848;SDS011;4963;51.444;6.528;2023-12-20T04:17:00;11.67;;;3.90;;
9848;SDS011;4963;51.444;6.528;2023-12-20T04:19:29;13.23;;;4.10;;
9848;SDS011;4963;51.444;6.528;2023-12-20T04:22:00;12.53;;;4.67;;
9848;SDS011;4963;51.444;6.528;2023-12-20T04:24:27;14.77;;;3.63;;
9848;SDS011;4963;51.444;6.528;2023-12-20T04:26:54;13.87;;;3.60;;
9848;SDS011;4963;51.444;6.528;2023-12-20T04:29:21;14.20;;;4.27;;
9848;SDS011;4963;51.444;6.528;2023-12-20T04:31:48;13.43;;;3.43;;
9848;SDS011;4963;51.444;6.528;2023-12-20T04:34:16;11.57;;;4.10;;
9848;SDS011;4963;51.444;6.528;2023-12-20T04:36:43;16.07;;;4.10;;
9848;SDS011;4963;51.444;6.528;2023-12-20T04:39:11;12.43;;;3.87;;
9848;SDS011;4963;51.444;6.528;2023-12-20T04:41:39;8.93;;;3.53;;
9848;SDS011;4963;51.444;6.528;2023-12-20T04:44:06;13.57;;;4.83;;
9848;SDS011;4963;51.444;6.528;2023-12-20T04:46:33;12.47;;;3.93;;
9848;SDS011;4963;51.444;6.528;2023-12-20T04:49:02;12.30;;;3.63;;
9848;SDS011;4963;51.444;6.528;2023-12-20T04:51:29;12.77;;;4.40;;
9848;SDS011;4963;51.444;6.528;2023-12-20T04:54:00;10.37;;;3.70;;
9848;SDS011;4963;51.444;6.528;2023-12-20T04:56:28;18.23;;;4.63;;
9848;SDS011;4963;51.444;6.528;2023-12-20T04:58:55;15.33;;;5.00;;
9848;SDS011;4963;51.444;6.528;2023-12-20T05:01:22;15.40;;;4.10;;
9848;SDS011;4963;51.444;6.528;2023-12-20T05:03:49;17.10;;;5.00;;
9848;SDS011;4963;51.444;6.528;2023-12-20T05:06:16;14.40;;;5.03;;
9848;SDS011;4963;51.444;6.528;2023-12-20T05:08:43;14.30;;;4.37;;
9848;SDS011;4963;51.444;6.528;2023-12-20T05:11:11;13.37;;;4.70;;
9848;SDS011;4963;51.444;6.528;2023-12-20T05:13:41;17.77;;;5.83;;
9848;SDS011;4963;51.444;6.528;2023-12-20T05:16:08;10.83;;;4.90;;
9848;SDS011;4963;51.444;6.528;2023-12-20T05:18:35;19.63;;;5.60;;
9848;SDS011;4963;51.444;6.528;2023-12-20T05:21:02;17.77;;;5.00;;
9848;SDS011;4963;51.444;6.528;2023-12-20T05:23:29;13.83;;;5.47;;
9848;SDS011;4963;51.444;6.528;2023-12-20T05:25:56;19.23;;;5.83;;
9848;SDS011;4963;51.444;6.528;2023-12-20T05:28:24;17.87;;;4.53;;
9848;SDS011;4963;51.444;6.528;2023-12-20T05:30:52;15.80;;;4.57;;
9848;SDS011;4963;51.444;6.528;2023-12-20T05:33:19;15.87;;;4.73;;
9848;SDS011;4963;51.444;6.528;2023-12-20T05:35:46;13.43;;;4.87;;
9848;SDS011;4963;51.444;6.528;2023-12-20T05:38:13;15.67;;;5.00;;
9848;SDS011;4963;51.444;6.528;2023-12-20T05:40:40;17.07;;;5.67;;
9848;SDS011;4963;51.444;6.528;2023-12-20T05:43:06;17.20;;;5.80;;
9848;SDS011;4963;51.444;6.528;2023-12-20T05:45:33;16.87;;;5.73;;
9848;SDS011;4963;51.444;6.528;2023-12-20T05:48:04;13.57;;;5.03;;
9848;SDS011;4963;51.444;6.528;2023-12-20T05:50:31;19.90;;;5.83;;
9848;SDS011;4963;51.444;6.528;2023-12-20T05:52:59;15.30;;;5.10;;
9848;SDS011;4963;51.444;6.528;2023-12-20T05:55:26;16.30;;;5.03;;
9848;SDS011;4963;51.444;6.528;2023-12-20T05:57:53;15.87;;;5.37;;
9848;SDS011;4963;51.444;6.528;2023-12-20T06:00:20;16.37;;;5.30;;
9848;SDS011;4963;51.444;6.528;2023-12-20T06:02:47;16.00;;;4.43;;
9848;SDS011;4963;51.444;6.528;2023-12-20T06:05:15;16.03;;;5.37;;
9848;SDS011;4963;51.444;6.528;2023-12-20T06:07:42;22.40;;;6.57;;
9848;SDS011;4963;51.444;6.528;2023-12-20T06:10:10;15.50;;;5.73;;
9848;SDS011;4963;51.444;6.528;2023-12-20T06:12:36;18.17;;;6.10;;
9848;SDS011;4963;51.444;6.528;2023-12-20T06:15:04;16.37;;;5.33;;
9848;SDS011;4963;51.444;6.528;2023-12-20T06:17:34;14.03;;;5.80;;
9848;SDS011;4963;51.444;6.528;2023-12-20T06:20:01;13.77;;;5.40;;
9848;SDS011;4963;51.444;6.528;2023-12-20T06:22:36;19.77;;;6.30;;
9848;SDS011;4963;51.444;6.528;2023-12-20T06:25:03;23.00;;;5.73;;
9848;SDS011;4963;51.444;6.528;2023-12-20T06:27:34;13.63;;;5.47;;
9848;SDS011;4963;51.444;6.528;2023-12-20T06:30:01;13.07;;;4.80;;
9848;SDS011;4963;51.444;6.528;2023-12-20T06:32:27;15.10;;;5.33;;
9848;SDS011;4963;51.444;6.528;2023-12-20T06:34:55;15.63;;;5.70;;
9848;SDS011;4963;51.444;6.528;2023-12-20T06:37:22;20.07;;;5.30;;
9848;SDS011;4963;51.444;6.528;2023-12-20T06:39:53;19.33;;;4.73;;
9848;SDS011;4963;51.444;6.528;2023-12-20T06:42:20;12.93;;;5.10;;
9848;SDS011;4963;51.444;6.528;2023-12-20T06:44:49;18.40;;;5.40;;
9848;SDS011;4963;51.444;6.528;2023-12-20T06:47:16;16.30;;;4.93;;
9848;SDS011;4963;51.444;6.528;2023-12-20T06:49:43;20.50;;;6.07;;
9848;SDS011;4963;51.444;6.528;2023-12-20T06:52:13;20.70;;;5.00;;
9848;SDS011;4963;51.444;6.528;2023-12-20T06:54:40;17.80;;;5.00;;
9848;SDS011;4963;51.444;6.528;2023-12-20T06:57:08;19.33;;;5.03;;
9848;SDS011;4963;51.444;6.528;2023-12-20T06:59:37;16.33;;;5.47;;
9848;SDS011;4963;51.444;6.528;2023-12-20T07:02:05;15.07;;;4.50;;
9848;SDS011;4963;51.444;6.528;2023-12-20T07:04:32;18.63;;;5.40;;
9848;SDS011;4963;51.444;6.528;2023-12-20T07:06:59;16.43;;;4.33;;
9848;SDS011;4963;51.444;6.528;2023-12-20T07:09:28;13.43;;;5.60;;
9848;SDS011;4963;51.444;6.528;2023-12-20T07:11:56;14.23;;;5.40;;
9848;SDS011;4963;51.444;6.528;2023-12-20T07:14:25;15.53;;;5.57;;
9848;SDS011;4963;51.444;6.528;2023-12-20T07:16:51;17.70;;;5.80;;
9848;SDS011;4963;51.444;6.528;2023-12-20T07:19:18;17.47;;;5.23;;
9848;SDS011;4963;51.444;6.528;2023-12-20T07:21:45;12.83;;;4.90;;
9848;SDS011;4963;51.444;6.528;2023-12-20T07:24:12;19.33;;;5.80;;
9848;SDS011;4963;51.444;6.528;2023-12-20T07:26:39;12.70;;;4.93;;
9848;SDS011;4963;51.444;6.528;2023-12-20T07:29:06;18.00;;;5.07;;
9848;SDS011;4963;51.444;6.528;2023-12-20T07:31:34;16.67;;;5.03;;
9848;SDS011;4963;51.444;6.528;2023-12-20T07:34:01;17.37;;;5.13;;
9848;SDS011;4963;51.444;6.528;2023-12-20T07:36:30;13.90;;;5.27;;
9848;SDS011;4963;51.444;6.528;2023-12-20T07:38:59;15.40;;;5.47;;
9848;SDS011;4963;51.444;6.528;2023-12-20T07:41:26;17.47;;;5.00;;
9848;SDS011;4963;51.444;6.528;2023-12-20T07:43:56;15.37;;;5.50;;
9848;SDS011;4963;51.444;6.528;2023-12-20T07:46:24;15.23;;;6.77;;
9848;SDS011;4963;51.444;6.528;2023-12-20T07:48:53;14.87;;;6.07;;
9848;SDS011;4963;51.444;6.528;2023-12-20T07:51:20;15.87;;;5.83;;
9848;SDS011;4963;51.444;6.528;2023-12-20T07:53:47;20.20;;;7.77;;
9848;SDS011;4963;51.444;6.528;2023-12-20T07:56:14;20.13;;;7.13;;
9848;SDS011;4963;51.444;6.528;2023-12-20T07:58:41;18.17;;;6.67;;
9848;SDS011;4963;51.444;6.528;2023-12-20T08:01:08;17.63;;;6.63;;
9848;SDS011;4963;51.444;6.528;2023-12-20T08:03:37;17.37;;;8.93;;
9848;SDS011;4963;51.444;6.528;2023-12-20T08:06:05;20.13;;;8.10;;
9848;SDS011;4963;51.444;6.528;2023-12-20T08:08:32;19.00;;;6.20;;
9848;SDS011;4963;51.444;6.528;2023-12-20T08:10:59;16.53;;;5.20;;
9848;SDS011;4963;51.444;6.528;2023-12-20T08:13:27;26.73;;;6.77;;
9848;SDS011;4963;51.444;6.528;2023-12-20T08:15:56;14.53;;;5.70;;
9848;SDS011;4963;51.444;6.528;2023-12-20T08:18:30;12.07;;;5.10;;
9848;SDS011;4963;51.444;6.528;2023-12-20T08:21:00;14.00;;;5.00;;
9848;SDS011;4963;51.444;6.528;2023-12-20T08:23:28;17.60;;;6.10;;
9848;SDS011;4963;51.444;6.528;2023-12-20T08:25:55;19.30;;;5.47;;
9848;SDS011;4963;51.444;6.528;2023-12-20T08:28:22;15.10;;;4.73;;
9848;SDS011;4963;51.444;6.528;2023-12-20T08:30:49;16.20;;;5.13;;
9848;SDS011;4963;51.444;6.528;2023-12-20T08:33:18;15.67;;;4.80;;
9848;SDS011;4963;51.444;6.528;2023-12-20T08:35:45;16.53;;;6.03;;
9848;SDS011;4963;51.444;6.528;2023-12-20T08:38:12;14.60;;;4.67;;
9848;SDS011;4963;51.444;6.528;2023-12-20T08:40:41;14.83;;;4.60;;
9848;SDS011;4963;51.444;6.528;2023-12-20T08:43:08;17.70;;;5.10;;
9848;SDS011;4963;51.444;6.528;2023-12-20T08:45:34;16.87;;;4.97;;
9848;SDS011;4963;51.444;6.528;2023-12-20T08:48:02;15.70;;;4.40;;
9848;SDS011;4963;51.444;6.528;2023-12-20T08:50:30;14.73;;;4.90;;
9848;SDS011;4963;51.444;6.528;2023-12-20T08:52:57;18.43;;;4.47;;
9848;SDS011;4963;51.444;6.528;2023-12-20T08:55:24;13.17;;;4.13;;
9848;SDS011;4963;51.444;6.528;2023-12-20T08:57:53;17.67;;;4.77;;
9848;SDS011;4963;51.444;6.528;2023-12-20T09:00:20;15.33;;;4.13;;
9848;SDS011;4963;51.444;6.528;2023-12-20T09:02:49;15.47;;;4.70;;
9848;SDS011;4963;51.444;6.528;2023-12-20T09:05:16;13.73;;;4.63;;
9848;SDS011;4963;51.444;6.528;2023-12-20T09:07:43;21.30;;;4.60;;
9848;SDS011;4963;51.444;6.528;2023-12-20T09:10:12;16.60;;;4.60;;
9848;SDS011;4963;51.444;6.528;2023-12-20T09:12:40;18.50;;;5.40;;
9848;SDS011;4963;51.444;6.528;2023-12-20T09:15:09;17.27;;;4.60;;
9848;SDS011;4963;51.444;6.528;2023-12-20T09:17:38;16.00;;;5.03;;
9848;SDS011;4963;51.444;6.528;2023-12-20T09:20:06;14.07;;;4.03;;
9848;SDS011;4963;51.444;6.528;2023-12-20T09:22:34;18.10;;;5.70;;
9848;SDS011;4963;51.444;6.528;2023-12-20T09:25:04;17.77;;;5.00;;
9848;SDS011;4963;51.444;6.528;2023-12-20T09:27:32;13.37;;;4.97;;
9848;SDS011;4963;51.444;6.528;2023-12-20T09:29:58;12.00;;;4.80;;
9848;SDS011;4963;51.444;6.528;2023-12-20T09:32:27;16.33;;;5.13;;
9848;SDS011;4963;51.444;6.528;2023-12-20T09:34:54;11.33;;;4.33;;
9848;SDS011;4963;51.444;6.528;2023-12-20T09:37:21;12.33;;;4.83;;
9848;SDS011;4963;51.444;6.528;2023-12-20T09:39:48;15.70;;;5.33;;
9848;SDS011;4963;51.444;6.528;2023-12-20T09:42:16;18.67;;;5.63;;
9848;SDS011;4963;51.444;6.528;2023-12-20T09:44:55;17.40;;;3.93;;
9848;SDS011;4963;51.444;6.528;2023-12-20T09:47:30;12.83;;;4.53;;
9848;SDS011;4963;51.444;6.528;2023-12-20T09:49:57;19.40;;;4.53;;
9848;SDS011;4963;51.444;6.528;2023-12-20T09:52:23;17.17;;;4.50;;
9848;SDS011;4963;51.444;6.528;2023-12-20T09:54:51;13.73;;;4.37;;
9848;SDS011;4963;51.444;6.528;2023-12-20T09:57:20;14.20;;;4.20;;
9848;SDS011;4963;51.444;6.528;2023-12-20T09:59:47;12.50;;;4.57;;
9848;SDS011;4963;51.444;6.528;2023-12-20T10:02:14;13.40;;;4.17;;
9848;SDS011;4963;51.444;6.528;2023-12-20T10:04:46;14.73;;;4.57;;
9848;SDS011;4963;51.444;6.528;2023-12-20T10:07:13;12.03;;;4.13;;
9848;SDS011;4963;51.444;6.528;2023-12-20T10:09:40;18.37;;;6.00;;
9848;SDS011;4963;51.444;6.528;2023-12-20T10:12:08;13.97;;;4.50;;
9848;SDS011;4963;51.444;6.528;2023-12-20T10:14:35;16.40;;;4.83;;
9848;SDS011;4963;51.444;6.528;2023-12-20T10:17:05;15.83;;;4.83;;
9848;SDS011;4963;51.444;6.528;2023-12-20T10:19:33;20.43;;;4.87;;
9848;SDS011;4963;51.444;6.528;2023-12-20T10:22:03;18.17;;;4.50;;
9848;SDS011;4963;51.444;6.528;2023-12-20T10:24:31;13.57;;;4.40;;
9848;SDS011;4963;51.444;6.528;2023-12-20T10:27:03;11.57;;;4.30;;
9848;SDS011;4963;51.444;6.528;2023-12-20T10:29:33;12.87;;;4.37;;
9848;SDS011;4963;51.444;6.528;2023-12-20T10:32:22;12.47;;;4.47;;
9848;SDS011;4963;51.444;6.528;2023-12-20T10:34:50;15.57;;;4.43;;
9848;SDS011;4963;51.444;6.528;2023-12-20T10:37:19;13.70;;;4.40;;
9848;SDS011;4963;51.444;6.528;2023-12-20T10:39:47;14.93;;;4.83;;
9848;SDS011;4963;51.444;6.528;2023-12-20T10:42:21;13.50;;;5.40;;
9848;SDS011;4963;51.444;6.528;2023-12-20T10:44:48;13.13;;;4.30;;
9848;SDS011;4963;51.444;6.528;2023-12-20T10:47:16;16.03;;;4.70;;
9848;SDS011;4963;51.444;6.528;2023-12-20T10:49:44;10.00;;;4.30;;
9848;SDS011;4963;51.444;6.528;2023-12-20T10:52:13;15.00;;;5.30;;
9848;SDS011;4963;51.444;6.528;2023-12-20T10:54:44;21.33;;;4.67;;
9848;SDS011;4963;51.444;6.528;2023-12-20T10:57:18;12.30;;;4.50;;
9848;SDS011;4963;51.444;6.528;2023-12-20T10:59:46;18.23;;;5.27;;
9848;SDS011;4963;51.444;6.528;2023-12-20T11:02:15;19.70;;;5.00;;
9848;SDS011;4963;51.444;6.528;2023-12-20T11:04:43;15.90;;;5.10;;
9848;SDS011;4963;51.444;6.528;2023-12-20T11:07:17;15.43;;;5.50;;
9848;SDS011;4963;51.444;6.528;2023-12-20T11:09:53;12.67;;;4.10;;
9848;SDS011;4963;51.444;6.528;2023-12-20T11:12:28;16.93;;;5.20;;
9848;SDS011;4963;51.444;6.528;2023-12-20T11:15:03;15.60;;;5.13;;
9848;SDS011;4963;51.444;6.528;2023-12-20T11:17:31;15.53;;;4.77;;
9848;SDS011;4963;51.444;6.528;2023-12-20T11:20:05;16.87;;;5.20;;
9848;SDS011;4963;51.444;6.528;2023-12-20T11:22:35;15.27;;;4.73;;
9848;SDS011;4963;51.444;6.528;2023-12-20T11:25:05;13.10;;;4.73;;
9848;SDS011;4963;51.444;6.528;2023-12-20T11:27:36;14.60;;;4.20;;
9848;SDS011;4963;51.444;6.528;2023-12-20T11:30:10;17.03;;;4.80;;
9848;SDS011;4963;51.444;6.528;2023-12-20T11:32:40;13.30;;;4.60;;
9848;SDS011;4963;51.444;6.528;2023-12-20T11:35:18;13.17;;;4.90;;
9848;SDS011;4963;51.444;6.528;2023-12-20T11:37:46;12.60;;;4.73;;
9848;SDS011;4963;51.444;6.528;2023-12-20T11:40:14;15.07;;;5.00;;
9848;SDS011;4963;51.444;6.528;2023-12-20T11:42:43;14.57;;;4.80;;
9848;SDS011;4963;51.444;6.528;2023-12-20T11:45:13;16.17;;;4.87;;
9848;SDS011;4963;51.444;6.528;2023-12-20T11:47:42;14.57;;;5.10;;
9848;SDS011;4963;51.444;6.528;2023-12-20T11:50:12;14.63;;;5.10;;
9848;SDS011;4963;51.444;6.528;2023-12-20T11:52:39;17.37;;;4.60;;
9848;SDS011;4963;51.444;6.528;2023-12-20T11:55:06;15.03;;;5.13;;
9848;SDS011;4963;51.444;6.528;2023-12-20T11:57:36;13.90;;;5.23;;
9848;SDS011;4963;51.444;6.528;2023-12-20T12:00:09;15.17;;;4.77;;
9848;SDS011;4963;51.444;6.528;2023-12-20T12:02:37;17.83;;;4.77;;
9848;SDS011;4963;51.444;6.528;2023-12-20T12:05:04;15.40;;;5.17;;
9848;SDS011;4963;51.444;6.528;2023-12-20T12:07:32;15.57;;;4.83;;
9848;SDS011;4963;51.444;6.528;2023-12-20T12:09:59;28.87;;;9.23;;
9848;SDS011;4963;51.444;6.528;2023-12-20T12:12:26;10.90;;;5.00;;
9848;SDS011;4963;51.444;6.528;2023-12-20T12:14:56;13.53;;;4.47;;
9848;SDS011;4963;51.444;6.528;2023-12-20T12:17:23;15.77;;;5.53;;
9848;SDS011;4963;51.444;6.528;2023-12-20T12:19:50;15.33;;;4.73;;
9848;SDS011;4963;51.444;6.528;2023-12-20T12:22:27;14.67;;;4.10;;
9848;SDS011;4963;51.444;6.528;2023-12-20T12:24:58;16.03;;;4.00;;
9848;SDS011;4963;51.444;6.528;2023-12-20T12:27:26;10.40;;;4.87;;
9848;SDS011;4963;51.444;6.528;2023-12-20T12:30:02;11.73;;;4.80;;
9848;SDS011;4963;51.444;6.528;2023-12-20T12:32:32;10.53;;;4.30;;
9848;SDS011;4963;51.444;6.528;2023-12-20T12:34:59;13.30;;;4.70;;
9848;SDS011;4963;51.444;6.528;2023-12-20T12:37:26;11.70;;;4.27;;
9848;SDS011;4963;51.444;6.528;2023-12-20T12:39:53;16.77;;;5.27;;
9848;SDS011;4963;51.444;6.528;2023-12-20T12:42:20;12.63;;;4.37;;
9848;SDS011;4963;51.444;6.528;2023-12-20T12:44:50;14.03;;;4.50;;
9848;SDS011;4963;51.444;6.528;2023-12-20T12:47:19;12.90;;;4.67;;
9848;SDS011;4963;51.444;6.528;2023-12-20T12:49:46;16.30;;;4.97;;
9848;SDS011;4963;51.444;6.528;2023-12-20T12:52:13;12.03;;;4.30;;
9848;SDS011;4963;51.444;6.528;2023-12-20T12:54:39;13.77;;;4.60;;
9848;SDS011;4963;51.444;6.528;2023-12-20T12:57:07;14.80;;;4.90;;
9848;SDS011;4963;51.444;6.528;2023-12-20T12:59:34;10.63;;;4.80;;
9848;SDS011;4963;51.444;6.528;2023-12-20T13:02:01;12.10;;;4.93;;
9848;SDS011;4963;51.444;6.528;2023-12-20T13:04:30;14.07;;;5.10;;
9848;SDS011;4963;51.444;6.528;2023-12-20T13:06:58;11.83;;;5.80;;
9848;SDS011;4963;51.444;6.528;2023-12-20T13:09:25;20.40;;;5.63;;
9848;SDS011;4963;51.444;6.528;2023-12-20T13:11:53;14.80;;;5.57;;
9848;SDS011;4963;51.444;6.528;2023-12-20T13:14:19;15.23;;;6.47;;
9848;SDS011;4963;51.444;6.528;2023-12-20T13:16:47;15.00;;;6.60;;
9848;SDS011;4963;51.444;6.528;2023-12-20T13:19:13;16.90;;;6.30;;
9848;SDS011;4963;51.444;6.528;2023-12-20T13:21:42;12.63;;;5.90;;
9848;SDS011;4963;51.444;6.528;2023-12-20T13:24:09;11.43;;;5.40;;
9848;SDS011;4963;51.444;6.528;2023-12-20T13:26:35;17.27;;;6.87;;
9848;SDS011;4963;51.444;6.528;2023-12-20T13:29:03;19.80;;;8.03;;
9848;SDS011;4963;51.444;6.528;2023-12-20T13:31:30;21.03;;;10.40;;
9848;SDS011;4963;51.444;6.528;2023-12-20T13:33:57;18.83;;;7.77;;
9848;SDS011;4963;51.444;6.528;2023-12-20T13:36:24;17.90;;;8.30;;
9848;SDS011;4963;51.444;6.528;2023-12-20T13:38:52;17.33;;;6.80;;
9848;SDS011;4963;51.444;6.528;2023-12-20T13:41:19;14.27;;;6.87;;
9848;SDS011;4963;51.444;6.528;2023-12-20T13:43:46;13.27;;;7.63;;
9848;SDS011;4963;51.444;6.528;2023-12-20T13:46:16;19.67;;;7.10;;
9848;SDS011;4963;51.444;6.528;2023-12-20T13:48:43;19.93;;;6.93;;
9848;SDS011;4963;51.444;6.528;2023-12-20T13:51:10;17.80;;;6.87;;
9848;SDS011;4963;51.444;6.528;2023-12-20T13:53:40;18.07;;;6.10;;
9848;SDS011;4963;51.444;6.528;2023-12-20T13:56:08;13.90;;;6.87;;
9848;SDS011;4963;51.444;6.528;2023-12-20T13:58:35;17.03;;;6.53;;
9848;SDS011;4963;51.444;6.528;2023-12-20T14:01:02;20.60;;;7.97;;
9848;SDS011;4963;51.444;6.528;2023-12-20T14:03:29;15.17;;;7.30;;
9848;SDS011;4963;51.444;6.528;2023-12-20T14:05:57;17.43;;;7.30;;
9848;SDS011;4963;51.444;6.528;2023-12-20T14:08:23;21.20;;;7.23;;
9848;SDS011;4963;51.444;6.528;2023-12-20T14:10:52;12.93;;;6.23;;
9848;SDS011;4963;51.444;6.528;2023-12-20T14:13:20;18.27;;;6.57;;
9848;SDS011;4963;51.444;6.528;2023-12-20T14:15:47;12.47;;;6.17;;
9848;SDS011;4963;51.444;6.528;2023-12-20T14:18:16;18.13;;;7.10;;
9848;SDS011;4963;51.444;6.528;2023-12-20T14:20:43;15.97;;;6.40;;
9848;SDS011;4963;51.444;6.528;2023-12-20T14:23:12;13.47;;;7.13;;
9848;SDS011;4963;51.444;6.528;2023-12-20T14:25:40;13.73;;;6.30;;
9848;SDS011;4963;51.444;6.528;2023-12-20T14:28:07;16.00;;;6.33;;
9848;SDS011;4963;51.444;6.528;2023-12-20T14:30:39;10.63;;;5.57;;
9848;SDS011;4963;51.444;6.528;2023-12-20T14:33:06;12.87;;;5.73;;
9848;SDS011;4963;51.444;6.528;2023-12-20T14:35:33;18.30;;;5.93;;
9848;SDS011;4963;51.444;6.528;2023-12-20T14:38:00;13.33;;;6.10;;
9848;SDS011;4963;51.444;6.528;2023-12-20T14:40:27;22.70;;;10.30;;
9848;SDS011;4963;51.444;6.528;2023-12-20T14:42:54;18.30;;;8.30;;
9848;SDS011;4963;51.444;6.528;2023-12-20T14:45:22;13.00;;;6.57;;
9848;SDS011;4963;51.444;6.528;2023-12-20T14:47:50;10.33;;;5.87;;
9848;SDS011;4963;51.444;6.528;2023-12-20T14:50:28;16.53;;;6.20;;
9848;SDS011;4963;51.444;6.528;2023-12-20T14:52:54;11.03;;;5.37;;
9848;SDS011;4963;51.444;6.528;2023-12-20T14:55:21;18.33;;;6.77;;
9848;SDS011;4963;51.444;6.528;2023-12-20T14:57:48;15.67;;;6.23;;
9848;SDS011;4963;51.444;6.528;2023-12-20T15:00:15;16.27;;;5.77;;
9848;SDS011;4963;51.444;6.528;2023-12-20T15:02:44;10.17;;;5.37;;
9848;SDS011;4963;51.444;6.528;2023-12-20T15:05:13;13.93;;;6.27;;
9848;SDS011;4963;51.444;6.528;2023-12-20T15:07:43;17.30;;;6.20;;